Time;durP1;ratioP1;P1;durP2;ratioP2;P2;SDS_P1;SDS_P2;PMS_P1;PMS_P2;Temp;Humidity;BMP_temperature;BMP_pressure;BME280_temperature;BME280_humidity;BME280_pressure;Samples;Min_cycle;Max_cycle;Signal;HPM_P1;HPM_P2
2021/06/26 00:00:11;;;;;;;11.07;8.37;;;;;;;16.26;100.00;101034.50;5027151;28;20237;-77
2021/06/26 00:02:39;;;;;;;10.83;9.17;;;;;;;16.20;100.00;101027.75;5030312;28;20307;-77
2021/06/26 00:05:08;;;;;;;9.23;8.33;;;;;;;16.17;100.00;101027.03;5026730;28;20219;-76
2021/06/26 00:07:37;;;;;;;10.10;8.53;;;;;;;16.12;100.00;101029.00;4996468;28;20218;-76
2021/06/26 00:10:05;;;;;;;10.30;9.30;;;;;;;16.11;100.00;101030.75;5028578;28;20207;-76
2021/06/26 00:12:31;;;;;;;10.43;8.20;;;;;;;16.17;100.00;101043.66;5031733;28;20254;-76
2021/06/26 00:14:59;;;;;;;9.63;8.63;;;;;;;16.19;100.00;101043.59;5018100;28;20227;-76
2021/06/26 00:17:26;;;;;;;11.30;8.97;;;;;;;16.12;100.00;101042.16;5032655;28;20229;-76
2021/06/26 00:19:53;;;;;;;10.40;8.63;;;;;;;16.09;100.00;101044.00;5027541;28;20326;-77
2021/06/26 00:22:19;;;;;;;10.00;8.87;;;;;;;16.04;100.00;101043.34;5012841;28;20216;-76
2021/06/26 00:24:45;;;;;;;9.90;8.70;;;;;;;16.04;100.00;101052.97;5024735;28;20205;-77
2021/06/26 00:27:12;;;;;;;11.13;8.60;;;;;;;16.00;100.00;101047.00;5029767;28;20587;-77
2021/06/26 00:29:38;;;;;;;10.30;8.70;;;;;;;15.98;100.00;101054.09;5023236;28;20363;-77
2021/06/26 00:32:06;;;;;;;10.43;9.10;;;;;;;15.94;100.00;101049.06;5024651;28;20308;-75
2021/06/26 00:34:33;;;;;;;11.50;9.57;;;;;;;15.93;100.00;101048.16;5017696;28;20255;-77
2021/06/26 00:36:59;;;;;;;11.03;9.07;;;;;;;15.92;100.00;101059.63;5027667;28;20286;-77
2021/06/26 00:39:26;;;;;;;9.63;8.37;;;;;;;15.87;100.00;101059.81;5016221;28;20202;-76
2021/06/26 00:41:52;;;;;;;11.67;10.20;;;;;;;15.85;100.00;101058.16;5030125;28;20246;-77
2021/06/26 00:44:19;;;;;;;11.17;9.20;;;;;;;15.84;100.00;101064.34;5008853;28;20208;-76
2021/06/26 00:46:45;;;;;;;10.07;8.80;;;;;;;15.87;100.00;101051.06;5010058;28;20286;-76
2021/06/26 00:49:13;;;;;;;10.90;9.77;;;;;;;15.82;100.00;101059.13;5027960;28;20291;-77
2021/06/26 00:51:41;;;;;;;10.30;9.23;;;;;;;15.83;100.00;101063.50;5028366;28;20229;-77
2021/06/26 00:54:07;;;;;;;11.97;9.50;;;;;;;15.83;100.00;101078.38;5029071;28;20352;-77
2021/06/26 00:56:34;;;;;;;11.17;9.73;;;;;;;15.76;100.00;101075.19;5033112;28;20208;-77
2021/06/26 00:59:00;;;;;;;11.40;10.20;;;;;;;15.78;100.00;101073.34;5021768;28;20279;-76
2021/06/26 01:01:27;;;;;;;12.43;9.93;;;;;;;15.76;100.00;101074.31;5028397;28;20227;-76
2021/06/26 01:03:53;;;;;;;10.30;9.20;;;;;;;15.79;100.00;101075.03;5013667;28;20215;-76
2021/06/26 01:06:22;;;;;;;10.10;9.10;;;;;;;15.81;100.00;101074.97;5011502;28;20249;-77
2021/06/26 01:08:48;;;;;;;11.10;8.70;;;;;;;15.81;100.00;101073.22;5025470;28;20238;-76
2021/06/26 01:11:15;;;;;;;10.27;9.20;;;;;;;15.81;100.00;101070.59;5029320;28;20227;-77
2021/06/26 01:13:41;;;;;;;11.57;10.23;;;;;;;15.80;100.00;101071.50;5026327;28;20236;-76
2021/06/26 01:16:08;;;;;;;10.50;9.43;;;;;;;15.81;100.00;101073.22;5028129;28;20322;-76
2021/06/26 01:18:34;;;;;;;10.87;9.27;;;;;;;15.82;100.00;101076.69;5036449;28;20241;-76
2021/06/26 01:21:01;;;;;;;12.90;9.53;;;;;;;15.78;100.00;101075.97;5030796;28;20317;-77
2021/06/26 01:23:29;;;;;;;13.80;10.37;;;;;;;15.76;100.00;101072.56;5032574;28;20225;-75
2021/06/26 01:25:55;;;;;;;11.60;10.40;;;;;;;15.73;100.00;101072.63;5031826;28;20271;-76
2021/06/26 01:28:22;;;;;;;11.00;9.80;;;;;;;15.71;100.00;101079.72;5031920;28;20207;-77
2021/06/26 01:30:48;;;;;;;10.87;9.77;;;;;;;15.78;100.00;101078.59;5026751;28;20219;-77
2021/06/26 01:33:15;;;;;;;12.03;10.03;;;;;;;15.73;100.00;101079.66;5033321;28;20298;-76
2021/06/26 01:35:41;;;;;;;11.10;9.77;;;;;;;15.73;100.00;101077.88;5030379;28;20235;-78
2021/06/26 01:38:08;;;;;;;11.73;10.47;;;;;;;15.73;100.00;101079.66;5030119;28;20280;-75
2021/06/26 01:40:36;;;;;;;11.20;10.00;;;;;;;15.71;100.00;101077.09;5028207;28;20257;-77
2021/06/26 01:43:02;;;;;;;12.30;10.57;;;;;;;15.70;100.00;101068.34;5034791;28;20212;-75
2021/06/26 01:45:29;;;;;;;10.17;9.17;;;;;;;15.69;100.00;101066.66;5033447;28;20198;-75
2021/06/26 01:47:57;;;;;;;10.43;8.50;;;;;;;15.77;100.00;101065.50;5034536;28;20484;-76
2021/06/26 01:50:25;;;;;;;10.93;9.17;;;;;;;15.78;100.00;101069.84;5027902;28;20273;-76
2021/06/26 01:52:52;;;;;;;11.37;9.23;;;;;;;15.79;100.00;101075.03;5031179;28;20216;-76
2021/06/26 01:55:21;;;;;;;11.00;9.90;;;;;;;15.83;100.00;101070.50;5033540;28;20633;-77
2021/06/26 01:57:51;;;;;;;10.33;8.80;;;;;;;15.78;100.00;101072.50;5032764;28;20283;-77
2021/06/26 02:00:20;;;;;;;13.33;10.90;;;;;;;15.74;100.00;101079.59;5032293;28;20233;-77
2021/06/26 02:02:46;;;;;;;10.73;9.63;;;;;;;15.73;100.00;101077.03;5032733;28;20295;-76
2021/06/26 02:05:15;;;;;;;10.37;9.30;;;;;;;15.75;100.00;101080.50;5029107;28;20673;-77
2021/06/26 02:07:41;;;;;;;11.77;10.23;;;;;;;15.75;100.00;101076.09;5031182;28;20580;-76
2021/06/26 02:10:09;;;;;;;11.70;9.53;;;;;;;15.77;100.00;101073.41;5034512;28;20217;-76
2021/06/26 02:12:35;;;;;;;11.10;9.67;;;;;;;15.79;100.00;101068.94;5030399;28;20224;-77
2021/06/26 02:15:03;;;;;;;12.03;10.73;;;;;;;15.79;100.00;101076.81;5030121;28;20220;-77
2021/06/26 02:17:30;;;;;;;12.47;10.30;;;;;;;15.80;100.00;101075.91;5029105;28;20234;-77
2021/06/26 02:19:56;;;;;;;11.13;9.13;;;;;;;15.82;100.00;101082.78;5029337;28;20216;-75
2021/06/26 02:22:23;;;;;;;12.63;10.27;;;;;;;15.80;100.00;101086.41;5035543;28;20231;-76
2021/06/26 02:24:49;;;;;;;12.23;10.07;;;;;;;15.80;100.00;101083.78;5033578;28;20199;-76
2021/06/26 02:27:15;;;;;;;10.17;9.17;;;;;;;15.76;100.00;101083.06;5032396;28;20778;-77
2021/06/26 02:29:42;;;;;;;12.20;10.23;;;;;;;15.76;100.00;101079.56;5035721;28;20653;-76
2021/06/26 02:32:10;;;;;;;15.57;10.43;;;;;;;15.79;100.00;101082.06;5032831;28;20225;-76
2021/06/26 02:34:36;;;;;;;14.30;10.73;;;;;;;15.78;100.00;101081.22;5034262;28;20246;-76
2021/06/26 02:37:03;;;;;;;12.50;10.17;;;;;;;15.80;100.00;101079.38;5033019;28;20698;-76
2021/06/26 02:39:30;;;;;;;10.70;9.60;;;;;;;15.84;100.00;101080.13;5037894;28;20214;-77
2021/06/26 02:41:56;;;;;;;11.83;9.73;;;;;;;15.79;100.00;101082.91;5034126;28;20238;-76
2021/06/26 02:44:23;;;;;;;11.53;10.23;;;;;;;15.78;100.00;101088.25;5035513;28;20242;-76
2021/06/26 02:46:50;;;;;;;13.53;11.07;;;;;;;15.79;100.00;101088.16;5039095;28;20582;-76
2021/06/26 02:49:18;;;;;;;11.63;10.23;;;;;;;15.76;100.00;101079.56;5035286;28;20523;-76
2021/06/26 02:51:44;;;;;;;11.67;10.00;;;;;;;15.73;100.00;101085.78;5033691;28;20312;-75
2021/06/26 02:54:11;;;;;;;11.47;9.97;;;;;;;15.73;100.00;101088.41;5034566;28;20579;-76
2021/06/26 02:56:37;;;;;;;11.97;10.67;;;;;;;15.74;100.00;101086.63;5032482;28;20403;-76
2021/06/26 02:59:04;;;;;;;13.00;10.90;;;;;;;15.72;100.00;101081.41;5035196;28;20207;-75
2021/06/26 03:01:30;;;;;;;12.37;10.90;;;;;;;15.74;100.00;101084.00;5034317;28;20698;-77
2021/06/26 03:03:56;;;;;;;11.80;10.40;;;;;;;15.74;100.00;101087.47;5032477;28;20780;-75
2021/06/26 03:06:24;;;;;;;13.00;10.40;;;;;;;15.72;100.00;101091.94;5037415;28;20230;-76
2021/06/26 03:08:50;;;;;;;13.50;9.77;;;;;;;15.73;100.00;101098.91;5033643;28;20989;-77
2021/06/26 03:11:17;;;;;;;11.37;10.00;;;;;;;15.69;100.00;101095.56;5017365;28;20236;-76
2021/06/26 03:13:43;;;;;;;12.40;10.47;;;;;;;15.70;100.00;101096.41;5032050;28;20214;-76
2021/06/26 03:16:09;;;;;;;12.00;10.80;;;;;;;15.67;100.00;101099.16;5034813;28;20655;-77
2021/06/26 03:18:36;;;;;;;13.10;10.60;;;;;;;15.71;100.00;101104.22;5026912;28;20206;-76
2021/06/26 03:21:03;;;;;;;11.77;10.20;;;;;;;15.76;100.00;101101.47;5034284;28;20227;-76
2021/06/26 03:23:31;;;;;;;12.90;10.37;;;;;;;15.75;100.00;101098.91;5033646;28;20195;-76
2021/06/26 03:25:57;;;;;;;12.50;10.87;;;;;;;15.75;100.00;101110.25;5035098;28;20215;-76
2021/06/26 03:28:23;;;;;;;13.23;10.47;;;;;;;15.75;100.00;101110.25;5034435;28;20695;-77
2021/06/26 03:30:50;;;;;;;14.37;10.50;;;;;;;15.74;100.00;101113.75;5035819;28;20223;-77
2021/06/26 03:33:16;;;;;;;12.23;10.33;;;;;;;15.78;100.00;101111.94;5015453;28;20207;-77
2021/06/26 03:35:43;;;;;;;12.73;10.60;;;;;;;15.78;100.00;101114.56;5032447;28;20724;-77
2021/06/26 03:38:09;;;;;;;12.40;10.23;;;;;;;15.82;100.00;101114.34;5034388;28;20195;-77
2021/06/26 03:40:37;;;;;;;10.83;9.73;;;;;;;15.87;100.00;101114.19;5034560;28;20274;-76
2021/06/26 03:43:03;;;;;;;12.23;10.20;;;;;;;15.87;100.00;101122.91;5035000;28;20204;-76
2021/06/26 03:45:30;;;;;;;11.30;10.13;;;;;;;15.89;100.00;101122.84;5036414;28;20209;-76
2021/06/26 03:47:56;;;;;;;12.50;11.20;;;;;;;15.86;100.00;101121.19;5032763;28;20217;-76
2021/06/26 03:50:23;;;;;;;13.07;10.63;;;;;;;15.87;100.00;101125.53;5034134;28;20216;-76
2021/06/26 03:52:49;;;;;;;11.67;9.87;;;;;;;15.93;100.00;101123.59;5031771;28;20229;-77
2021/06/26 03:55:16;;;;;;;14.63;10.80;;;;;;;15.93;100.00;101124.44;5034863;28;20472;-76
2021/06/26 03:57:44;;;;;;;12.57;10.43;;;;;;;15.95;100.00;101133.09;5036597;28;20573;-77
2021/06/26 04:00:11;;;;;;;13.83;10.83;;;;;;;15.95;100.00;101132.25;5034150;28;20238;-77
2021/06/26 04:02:38;;;;;;;12.10;10.60;;;;;;;15.99;100.00;101129.44;5033010;28;20225;-76
2021/06/26 04:05:05;;;;;;;12.70;10.87;;;;;;;16.00;100.00;101139.03;5014517;28;20297;-77
2021/06/26 04:07:31;;;;;;;16.03;12.00;;;;;;;16.03;100.00;101133.66;5035412;28;20208;-76
2021/06/26 04:09:58;;;;;;;14.40;11.23;;;;;;;16.04;100.00;101138.00;5033009;28;20747;-76
2021/06/26 04:12:24;;;;;;;13.17;11.57;;;;;;;16.05;100.00;101142.34;5030930;28;20219;-77
2021/06/26 04:14:52;;;;;;;13.23;10.77;;;;;;;16.09;100.00;101140.44;5031843;28;20243;-76
2021/06/26 04:17:18;;;;;;;14.50;10.83;;;;;;;16.11;100.00;101140.38;5033832;28;20295;-76
2021/06/26 04:19:44;;;;;;;12.43;11.13;;;;;;;16.10;100.00;101142.16;5038115;28;20263;-76
2021/06/26 04:22:11;;;;;;;16.27;11.80;;;;;;;16.14;100.00;101142.88;5038454;28;20219;-77
2021/06/26 04:24:38;;;;;;;12.60;11.30;;;;;;;16.18;100.00;101133.94;5032474;28;20207;-76
2021/06/26 04:27:05;;;;;;;14.30;12.07;;;;;;;16.22;100.00;101135.53;5037377;28;20734;-77
2021/06/26 04:29:31;;;;;;;14.57;12.27;;;;;;;16.26;100.00;101137.13;5037965;28;20199;-77
2021/06/26 04:31:59;;;;;;;14.53;11.40;;;;;;;16.23;100.00;101135.47;5033952;28;20290;-76
2021/06/26 04:34:26;;;;;;;15.70;11.47;;;;;;;16.30;100.00;101137.84;5038052;28;20670;-76
2021/06/26 04:36:53;;;;;;;14.10;11.83;;;;;;;16.30;100.00;101140.47;5034308;28;20665;-76
2021/06/26 04:39:20;;;;;;;13.17;11.67;;;;;;;16.34;100.00;101139.41;5034393;28;20196;-76
2021/06/26 04:41:46;;;;;;;13.37;11.03;;;;;;;16.38;100.00;101133.97;5032580;28;20230;-76
2021/06/26 04:44:13;;;;;;;14.30;12.57;;;;;;;16.40;100.00;101131.28;5032210;28;20196;-77
2021/06/26 04:46:39;;;;;;;16.60;11.87;;;;;;;16.45;100.00;101134.56;5030751;28;20247;-76
2021/06/26 04:49:07;;;;;;;17.10;12.73;;;;;;;16.49;100.00;101128.25;5032858;28;20200;-76
2021/06/26 04:51:36;;;;;;;13.10;11.37;;;;;;;16.55;100.00;101143.78;5031426;28;20228;-75
2021/06/26 04:54:03;;;;;;;15.80;12.67;;;;;;;16.57;100.00;101135.81;5039102;28;20216;-75
2021/06/26 04:56:29;;;;;;;13.80;12.37;;;;;;;16.59;100.00;101144.50;5031987;28;20215;-76
2021/06/26 04:58:56;;;;;;;14.87;12.60;;;;;;;16.62;100.00;101139.09;5037740;28;20621;-75
2021/06/26 05:01:22;;;;;;;15.93;12.03;;;;;;;16.65;100.00;101147.72;5029695;28;20219;-75
2021/06/26 05:03:48;;;;;;;16.83;11.80;;;;;;;16.66;100.00;101143.31;5030791;28;20195;-76
2021/06/26 05:06:16;;;;;;;14.73;12.37;;;;;;;16.69;100.00;101142.31;5031589;28;20194;-76
2021/06/26 05:08:43;;;;;;;17.37;11.80;;;;;;;16.73;100.00;101138.66;5031833;28;20200;-76
2021/06/26 05:11:09;;;;;;;15.10;11.93;;;;;;;16.78;100.00;101139.28;5029963;28;20653;-77
2021/06/26 05:13:36;;;;;;;15.17;12.60;;;;;;;16.84;100.00;101141.69;5037178;28;20651;-77
2021/06/26 05:16:02;;;;;;;16.50;12.20;;;;;;;16.87;100.00;101138.06;5033033;28;20215;-77
2021/06/26 05:18:29;;;;;;;14.60;12.47;;;;;;;16.95;100.00;101135.94;5032740;28;20305;-77
2021/06/26 05:20:55;;;;;;;15.03;12.40;;;;;;;17.01;100.00;101143.59;5031605;28;20220;-76
2021/06/26 05:23:24;;;;;;;15.87;12.93;;;;;;;17.05;100.00;101144.31;5029184;28;20208;-77
2021/06/26 05:25:50;;;;;;;16.03;12.23;;;;;;;17.19;100.00;101144.53;5032355;28;20513;-77
2021/06/26 05:28:17;;;;;;;16.77;12.30;;;;;;;17.30;100.00;101151.94;5016221;28;20642;-76
2021/06/26 05:30:44;;;;;;;20.13;12.37;;;;;;;17.30;100.00;101158.06;5037720;28;20275;-77
2021/06/26 05:33:10;;;;;;;14.67;12.57;;;;;;;17.25;100.00;101151.28;5030587;28;20203;-76
2021/06/26 05:35:37;;;;;;;15.67;12.77;;;;;;;17.29;100.00;101152.84;5032089;28;20239;-76
2021/06/26 05:38:04;;;;;;;13.13;11.00;;;;;;;17.37;100.00;101158.63;5033447;28;20204;-77
2021/06/26 05:40:32;;;;;;;13.23;11.83;;;;;;;17.48;100.00;101151.06;5032209;28;20206;-77
2021/06/26 05:42:58;;;;;;;14.07;11.73;;;;;;;17.59;100.00;101150.59;5031859;28;20298;-76
2021/06/26 05:45:25;;;;;;;13.70;12.00;;;;;;;17.66;100.00;101146.75;5028862;28;20204;-76
2021/06/26 05:47:52;;;;;;;13.80;12.23;;;;;;;17.68;100.00;101144.03;5010954;28;20483;-77
2021/06/26 05:50:18;;;;;;;14.50;11.53;;;;;;;17.74;100.00;101147.19;5025411;28;20219;-76
2021/06/26 05:52:46;;;;;;;14.63;12.07;;;;;;;17.79;100.00;101147.84;5031058;28;20306;-76
2021/06/26 05:55:13;;;;;;;14.67;12.07;;;;;;;17.84;100.00;101137.09;5034740;28;20685;-77
2021/06/26 05:57:41;;;;;;;14.37;11.63;;;;;;;17.82;100.00;101144.22;5030664;28;20303;-77
2021/06/26 06:00:08;;;;;;;13.23;11.63;;;;;;;17.79;99.44;101145.22;5023918;28;20319;-76
2021/06/26 06:02:39;;;;;;;13.17;11.70;;;;;;;17.81;99.36;101145.13;5032904;28;20315;-75
2021/06/26 06:05:08;;;;;;;13.50;11.13;;;;;;;17.84;99.84;101152.06;5043244;28;20214;-76
2021/06/26 06:07:35;;;;;;;15.00;12.40;;;;;;;17.88;100.00;101148.38;5029947;28;20260;-76
2021/06/26 06:10:01;;;;;;;13.53;11.30;;;;;;;17.95;100.00;101153.25;5035944;28;20199;-76
2021/06/26 06:12:28;;;;;;;13.90;11.93;;;;;;;17.91;99.11;101153.50;5033404;28;20318;-77
2021/06/26 06:14:56;;;;;;;15.53;12.23;;;;;;;17.98;99.77;101147.84;5021436;28;20234;-77
2021/06/26 06:17:22;;;;;;;13.83;12.00;;;;;;;18.06;98.93;101152.72;5034209;28;20226;-77
2021/06/26 06:19:48;;;;;;;15.20;13.17;;;;;;;18.16;99.97;101153.16;5035430;28;20203;-76
2021/06/26 06:22:15;;;;;;;15.93;12.40;;;;;;;18.24;96.73;101163.31;5034642;28;20234;-76
2021/06/26 06:24:41;;;;;;;13.67;11.07;;;;;;;18.35;97.26;101164.50;5033194;28;20251;-76
2021/06/26 06:27:08;;;;;;;15.87;12.97;;;;;;;18.46;94.95;101150.75;5034891;28;20625;-76
2021/06/26 06:29:34;;;;;;;15.70;13.00;;;;;;;18.77;96.83;101150.94;5036843;28;20226;-76
2021/06/26 06:32:03;;;;;;;15.30;12.20;;;;;;;18.86;94.26;101156.66;5033288;28;20227;-77
2021/06/26 06:34:29;;;;;;;13.63;12.00;;;;;;;18.95;96.96;101160.59;5033985;28;20206;-78
2021/06/26 06:36:56;;;;;;;15.23;11.80;;;;;;;18.96;93.27;101167.59;5032563;28;20223;-77
2021/06/26 06:39:24;;;;;;;12.10;10.30;;;;;;;19.05;92.36;101175.03;5031711;28;20214;-76
2021/06/26 06:41:50;;;;;;;11.90;10.60;;;;;;;19.13;92.70;101166.69;5037595;28;20273;-76
2021/06/26 06:44:16;;;;;;;13.60;9.87;;;;;;;19.11;90.39;101172.06;5030321;28;20214;-77
2021/06/26 06:46:43;;;;;;;10.63;9.27;;;;;;;19.15;88.61;101171.91;5038584;28;20195;-76
2021/06/26 06:49:11;;;;;;;11.30;9.33;;;;;;;19.20;90.01;101183.91;5031017;28;20271;-78
2021/06/26 06:51:37;;;;;;;10.37;9.27;;;;;;;19.21;90.95;101190.09;5041215;28;20234;-76
2021/06/26 06:54:04;;;;;;;11.13;9.30;;;;;;;19.19;88.04;101189.28;5032777;28;20259;-76
2021/06/26 06:56:30;;;;;;;11.53;8.73;;;;;;;19.33;90.77;101186.78;5035816;28;20282;-76
2021/06/26 06:58:57;;;;;;;10.93;9.73;;;;;;;19.34;87.82;101187.63;5030191;28;20607;-76
2021/06/26 07:01:24;;;;;;;11.00;8.70;;;;;;;19.42;85.48;101185.44;5037357;28;20221;-77
2021/06/26 07:03:51;;;;;;;9.30;8.17;;;;;;;19.60;86.36;101178.28;5033118;28;20382;-77
2021/06/26 07:06:18;;;;;;;10.23;9.13;;;;;;;19.71;84.87;101189.09;5035932;28;20294;-76
2021/06/26 07:08:45;;;;;;;9.97;8.90;;;;;;;19.94;87.77;101187.00;5028532;28;20209;-76
2021/06/26 07:11:11;;;;;;;11.10;9.47;;;;;;;20.08;85.56;101181.75;5016664;28;20234;-76
2021/06/26 07:13:38;;;;;;;10.10;8.60;;;;;;;20.16;84.65;101184.84;5028421;28;20204;-77
2021/06/26 07:16:05;;;;;;;9.53;8.53;;;;;;;20.21;84.03;101182.78;5031466;28;20560;-76
2021/06/26 07:18:31;;;;;;;9.23;8.33;;;;;;;20.32;85.70;101186.59;5030360;28;20586;-76
2021/06/26 07:20:58;;;;;;;11.40;8.27;;;;;;;20.31;81.68;101190.19;5027664;28;20477;-76
2021/06/26 07:23:25;;;;;;;8.90;8.00;;;;;;;20.37;81.95;101187.19;5029160;28;20231;-76
2021/06/26 07:25:52;;;;;;;8.57;7.70;;;;;;;20.46;80.09;101188.44;5032674;28;20808;-77
2021/06/26 07:28:18;;;;;;;8.83;7.70;;;;;;;20.54;78.25;101196.78;5034532;28;20295;-76
2021/06/26 07:30:44;;;;;;;9.17;7.97;;;;;;;20.61;80.81;101190.16;5030685;28;20315;-76
2021/06/26 07:33:11;;;;;;;8.67;7.77;;;;;;;20.57;80.93;101178.91;5033109;28;20200;-77
2021/06/26 07:35:37;;;;;;;8.57;7.63;;;;;;;20.55;80.54;101177.31;5035727;28;20603;-76
2021/06/26 07:38:04;;;;;;;9.60;8.50;;;;;;;20.58;81.40;101180.63;5036433;28;20283;-77
2021/06/26 07:40:32;;;;;;;10.73;8.93;;;;;;;20.64;76.59;101184.72;5029717;28;20234;-76
2021/06/26 07:42:58;;;;;;;9.80;8.07;;;;;;;20.74;78.59;101180.59;5037520;28;20199;-76
2021/06/26 07:45:24;;;;;;;10.10;8.10;;;;;;;20.63;77.20;101179.50;5032586;28;20216;-76
2021/06/26 07:47:51;;;;;;;10.53;8.53;;;;;;;20.76;76.88;101177.84;5024379;28;20235;-77
2021/06/26 07:50:17;;;;;;;10.53;8.70;;;;;;;20.95;77.40;101167.84;5029514;28;20212;-77
2021/06/26 07:52:44;;;;;;;9.70;8.67;;;;;;;21.10;75.44;101167.81;5033264;28;20594;-77
2021/06/26 07:55:10;;;;;;;9.13;8.17;;;;;;;21.32;75.15;101173.50;5031480;28;20199;-77
2021/06/26 07:57:38;;;;;;;13.73;10.23;;;;;;;21.50;74.36;101170.66;5030877;28;20242;-76
2021/06/26 08:00:06;;;;;;;10.30;8.27;;;;;;;21.67;75.21;101165.13;5027085;28;20208;-77
2021/06/26 08:02:34;;;;;;;8.90;8.00;;;;;;;21.85;73.12;101173.72;5033670;28;20222;-76
2021/06/26 08:05:00;;;;;;;9.43;7.93;;;;;;;22.02;73.72;101159.34;5033327;28;20621;-76
2021/06/26 08:07:27;;;;;;;8.33;7.43;;;;;;;22.11;75.75;101158.72;5032013;28;20210;-77
2021/06/26 08:09:53;;;;;;;8.27;7.43;;;;;;;22.22;72.90;101163.31;5029496;28;20212;-77
2021/06/26 08:12:20;;;;;;;8.13;7.33;;;;;;;22.35;69.01;101173.16;5021704;28;20624;-78
2021/06/26 08:14:48;;;;;;;10.37;7.50;;;;;;;22.44;69.96;101164.56;5027171;28;20700;-77
2021/06/26 08:17:15;;;;;;;8.67;7.43;;;;;;;22.69;67.75;101169.06;5026431;28;20227;-77
2021/06/26 08:19:42;;;;;;;8.03;7.23;;;;;;;22.79;66.72;101171.94;5024338;28;20291;-77
2021/06/26 08:22:08;;;;;;;8.85;6.95;;;;;;;22.81;67.96;101160.25;5030709;28;20313;-77
2021/06/26 08:24:36;;;;;;;6.93;6.22;;;;;;;22.69;69.82;101159.28;5028087;28;20708;-77
2021/06/26 08:27:03;;;;;;;7.07;6.38;;;;;;;22.63;67.51;101156.19;5027054;28;20650;-77
2021/06/26 08:29:30;;;;;;;8.05;7.25;;;;;;;22.58;67.99;101159.16;5035901;28;20217;-77
2021/06/26 08:31:58;;;;;;;8.07;7.28;;;;;;;22.42;66.90;101159.34;5032031;28;20293;-77
2021/06/26 08:34:24;;;;;;;8.10;7.25;;;;;;;22.13;64.04;101169.25;5034084;28;20232;-77
2021/06/26 08:36:51;;;;;;;7.53;6.80;;;;;;;22.06;67.18;101160.84;5013704;28;20231;-77
2021/06/26 08:39:19;;;;;;;7.60;6.50;;;;;;;22.02;66.63;101159.34;5030427;28;20204;-77
2021/06/26 08:41:48;;;;;;;7.30;6.22;;;;;;;22.12;67.89;101156.91;5025486;28;20219;-77
2021/06/26 08:44:17;;;;;;;8.43;6.60;;;;;;;21.98;69.28;101163.13;5034743;28;20665;-78
2021/06/26 08:46:45;;;;;;;8.43;6.90;;;;;;;21.90;68.14;101160.16;5030178;28;20789;-77
2021/06/26 08:49:13;;;;;;;7.55;6.85;;;;;;;21.88;67.00;101164.69;5037072;28;20208;-77
2021/06/26 08:51:40;;;;;;;8.75;6.50;;;;;;;21.81;68.12;101158.06;5029580;28;20709;-77
2021/06/26 08:54:12;;;;;;;8.20;6.97;;;;;;;21.75;69.71;101164.63;5034564;28;20463;-77
2021/06/26 08:56:39;;;;;;;7.50;6.20;;;;;;;21.68;69.17;101161.53;5031630;28;20270;-77
2021/06/26 08:59:05;;;;;;;8.47;6.87;;;;;;;21.51;67.62;101167.94;5027048;28;20208;-77
2021/06/26 09:01:34;;;;;;;7.53;6.80;;;;;;;21.51;69.94;101165.28;5025097;28;20207;-78
2021/06/26 09:04:09;;;;;;;8.20;6.43;;;;;;;21.51;71.36;101156.44;5014838;28;20222;-77
2021/06/26 09:06:49;;;;;;;7.40;6.47;;;;;;;21.53;69.99;101157.22;5032430;28;20234;-78
2021/06/26 09:09:15;;;;;;;7.67;6.40;;;;;;;21.36;70.04;101163.56;5032127;28;20242;-77
2021/06/26 09:11:42;;;;;;;9.03;6.37;;;;;;;21.23;69.01;101166.13;5026789;28;20709;-77
2021/06/26 09:14:17;;;;;;;8.00;6.57;;;;;;;21.19;70.65;101164.59;5028239;28;20199;-78
2021/06/26 09:16:49;;;;;;;7.27;6.30;;;;;;;21.13;69.96;101168.50;5031826;28;20246;-78
2021/06/26 09:19:16;;;;;;;6.50;5.67;;;;;;;21.12;71.21;101164.13;5025300;28;20630;-77
2021/06/26 09:21:43;;;;;;;6.20;5.60;;;;;;;21.16;70.76;101165.66;5032020;28;20220;-76
2021/06/26 09:24:13;;;;;;;7.30;5.50;;;;;;;21.12;69.19;101169.41;5027872;28;20207;-76
2021/06/26 09:26:43;;;;;;;5.77;5.17;;;;;;;21.13;69.79;101168.50;5033176;28;20204;-76
2021/06/26 09:29:12;;;;;;;6.30;5.00;;;;;;;21.11;67.62;101165.09;5034218;28;20745;-77
2021/06/26 09:31:50;;;;;;;6.20;5.03;;;;;;;21.14;71.44;101167.56;5036028;28;20229;-77
2021/06/26 09:34:17;;;;;;;5.30;4.60;;;;;;;21.08;70.50;101161.78;5033538;28;20749;-77
2021/06/26 09:36:43;;;;;;;6.70;5.30;;;;;;;20.98;70.70;101161.47;5036184;28;20992;-77
2021/06/26 09:39:12;;;;;;;6.70;4.80;;;;;;;20.99;70.06;101163.19;5032531;28;20200;-77
2021/06/26 09:41:40;;;;;;;5.10;4.60;;;;;;;21.04;69.00;101168.22;5030454;28;20221;-78
2021/06/26 09:44:09;;;;;;;6.37;4.70;;;;;;;21.02;72.18;101160.34;5016063;28;20199;-77
2021/06/26 09:46:45;;;;;;;5.07;4.23;;;;;;;21.03;70.99;101162.03;5033542;28;20752;-77
2021/06/26 09:49:11;;;;;;;4.63;4.13;;;;;;;20.99;70.29;101160.53;5027093;28;20226;-78
2021/06/26 09:51:38;;;;;;;6.30;4.20;;;;;;;21.04;71.24;101162.91;5029386;28;20226;-76
2021/06/26 09:54:07;;;;;;;5.20;4.00;;;;;;;21.09;71.89;101152.84;5030427;28;20236;-76
2021/06/26 09:56:40;;;;;;;5.37;4.30;;;;;;;21.11;67.50;101158.94;5031104;28;20859;-76
2021/06/26 09:59:07;;;;;;;6.10;4.23;;;;;;;21.11;64.67;101157.13;5033571;28;20208;-76
2021/06/26 10:01:35;;;;;;;4.40;4.00;;;;;;;21.24;66.91;101154.56;5025883;28;20224;-78
2021/06/26 10:04:02;;;;;;;7.33;4.73;;;;;;;21.27;63.87;101162.34;5029102;28;20239;-77
2021/06/26 10:06:29;;;;;;;5.20;4.07;;;;;;;21.49;67.95;101151.22;5012942;28;20208;-77
2021/06/26 10:08:55;;;;;;;4.77;4.37;;;;;;;21.67;66.74;101158.97;5034796;28;20252;-76
2021/06/26 10:11:22;;;;;;;5.57;4.57;;;;;;;21.75;64.95;101161.97;5028778;28;20235;-76
2021/06/26 10:13:50;;;;;;;4.30;3.90;;;;;;;21.85;64.82;101159.59;5029033;28;20307;-77
2021/06/26 10:16:18;;;;;;;4.73;4.23;;;;;;;21.85;61.71;101165.75;5025785;28;20504;-76
2021/06/26 10:18:45;;;;;;;4.77;4.17;;;;;;;21.90;60.99;101166.31;5026360;28;20216;-76
2021/06/26 10:21:12;;;;;;;6.17;4.00;;;;;;;21.89;59.99;101171.69;5022667;28;20263;-76
2021/06/26 10:23:38;;;;;;;4.60;3.80;;;;;;;22.11;62.87;101164.03;5027832;28;20227;-78
2021/06/26 10:26:05;;;;;;;4.77;4.30;;;;;;;22.30;63.89;101163.69;5026921;28;20455;-77
2021/06/26 10:28:32;;;;;;;4.40;3.80;;;;;;;22.37;64.66;101168.59;5033440;28;20212;-77
2021/06/26 10:31:01;;;;;;;4.53;3.50;;;;;;;22.43;64.26;101165.53;5027773;28;20215;-76
2021/06/26 10:33:30;;;;;;;5.78;4.18;;;;;;;22.48;64.37;101169.56;5028428;28;20196;-77
2021/06/26 10:35:58;;;;;;;4.20;3.80;;;;;;;22.57;63.87;101167.25;5014266;28;20234;-77
2021/06/26 10:38:25;;;;;;;4.32;3.92;;;;;;;22.58;62.03;101168.94;5028663;28;20273;-77
2021/06/26 10:40:53;;;;;;;4.43;4.03;;;;;;;22.59;61.67;101168.84;5016836;28;20250;-77
2021/06/26 10:43:25;;;;;;;4.10;3.63;;;;;;;22.54;62.18;101160.31;5027356;28;20685;-77
2021/06/26 10:45:54;;;;;;;5.18;4.18;;;;;;;22.54;63.83;101152.34;5034819;28;20207;-78
2021/06/26 10:48:27;;;;;;;4.50;4.10;;;;;;;22.52;63.33;101150.78;5031439;28;20200;-77
2021/06/26 10:50:55;;;;;;;4.10;3.70;;;;;;;22.52;63.85;101150.78;5035949;28;20227;-77
2021/06/26 10:53:28;;;;;;;4.68;4.28;;;;;;;22.58;63.70;101147.69;5032833;28;20657;-77
2021/06/26 10:56:07;;;;;;;5.47;4.88;;;;;;;22.64;64.30;101148.13;5039273;28;20204;-77
2021/06/26 10:58:35;;;;;;;4.75;4.35;;;;;;;22.73;65.41;101143.97;5018135;28;20223;-77
2021/06/26 11:01:21;;;;;;;6.95;4.63;;;;;;;22.85;65.82;101134.31;5036844;28;20266;-77
2021/06/26 11:03:51;;;;;;;5.10;4.53;;;;;;;22.75;65.22;101133.25;5033698;28;20278;-77
2021/06/26 11:06:20;;;;;;;5.40;4.82;;;;;;;22.83;64.73;101136.19;5019042;28;20239;-77
2021/06/26 11:08:58;;;;;;;5.07;4.68;;;;;;;22.73;61.96;101135.16;5030360;28;20278;-78
2021/06/26 11:11:29;;;;;;;5.90;5.30;;;;;;;22.93;63.76;101131.94;5026917;28;20219;-77